Airport details for: LKPD (Czech Republic)

Metar

LKPD 172100Z 08005KT CAVOK 21/15 Q1017 RMK BLU

General details

ICAO: LKPD
IATA: PED
Name (city): Pardubice
Major:
Country: Czech Republic
vACC: Czech vACC
Description:

Web: http://www.vacc-cz.org/airports/others#lkpd

Scenery links:
FS9 scenery: Download
FSX/P3D scenery: Download
XP scenery:
Elevation: 741 ft.
Transition altitude: 5000 ft.
MSA: 8200 ft.
Latitude: 50.013458
Longitude: 15.738572
LKPD Charts
LKPD Notams
LKPD Online stations

Runways

Number Course Length Elevation Lat Lon ILS ILS freq ILS FAC GP
09 90° 8202ft / 2500 m 735ft 50.013997 15.72115 - - 3.0°
27 270° 8202ft / 2500 m 732ft 50.012917 15.755989 109.35 270° 3.0°